Airfield :







YOU CAN JOIN US ON...

 
LOGIN :

Register | Disclaimer

   EN    FR    IT 

 









Legend :    VFR   Marginal VFR   IFR   Intensive IFR   Very Intensive IFR
Visi :
Ceiling :
>= 8 km
>= 3000ft
5 to 8 km
1000 to 3000 ft
1500m to 5 km
500 to 1000 ft
800 to 1500m
200 to 500 ft
< 800m
< 200 ft
Symbols :   Thunderstorms  Fog  Heavy snow  Heavy precipitations  Wind > 20 kt






- Airport Elevation : 108 ft
- IATA code : YAY


CYAY - St Anthony

CURRENT METAR :
  • 052003Z AUTO 36003KT 1SM -SN VV012 M01/M01 A2936 RMK SLP945

EXPIRED METARs :
  • 051918Z AUTO 02003KT 3/4SM -SN VV010 M01/M01 A2937 RMK SLP950
  • 051900Z AUTO 03005KT 1/2SM SN VV009 M01/M01 A2937 RMK SLP949
  • 051827Z AUTO 36006KT 3/4SM -SN VV009 M00/M01 A2937 RMK SLP947
  • 051800Z AUTO 01005KT 1SM -SN VV011 M00/M01 A2937 RMK VIS VRB 5/8-1 1/2 SLP947

TAF TAF CYAY
Valid from the 05 at 20:00 until the 06 at 08:00 UTC


051938Z 0520/0608 01008KT 1SM -SN OVC006
TEMPO 0520/0522 3SM -SN OVC010
FM052200 33006KT 11/2SM -SN OVC008
TEMPO 0522/0608 3SM -SN OVC012
BECMG 0600/0602 24008KT RMK FCST BASED ON AUTO OBS. NXT FCST BY 060200Z



MET'MAP, your aeronautical weather chart ! - Copyright ORBIFLY December 2007 - Disclaimer

ORBIFLY MET'MAP TEAM :

Programming & Development : Alexandra Zaïnal
Concept & original design : Baudouin d'Aumeries
Assistance for programming : Marc-Olivier Méhu
Technical & hardware support : Manuel Goepfert

Contact : metmap@orbifly.com




SOURCES & CREDITS :

   NOAA